Coimbatore, India

2:55 PM IST on October 23, 2014 (GMT +0530)
Coimbatore | Change Station
CLOSE
Current Station
Airport
Location: Coimbatore,
Elevation: 1309 ft
Nearby Weather Stations

Elev 1309 ft 11.03 °N, 77.04 °E | Updated 25 minutes ago

Mostly Cloudy
Mostly Cloudy
86 °F
Feels Like 90 °F
N
16
Wind Variable Wind from East

Today
High -- | Low -- °F
--% Chance of Precip.
Yesterday
High -- | Low -- °F
Precip. -- in
6:11 AM 6:00 PM
Waning Crescent, 0% visible
Pressure 29.89 in
Visibility 3.7 miles
Clouds Scattered Clouds 1500 ft
Few 2000 ft
Mostly Cloudy 8000 ft
Heat Index 90 °F
Dew Point 70 °F
Humidity 58%
Rainfall 0.00 in
Snow Depth Not available.
UV 5 out of 12
Pollen Not available.
Air Quality Not available.
Flu Activity Not available.
METAR VOCB 230900Z 09014KT 6000 SCT015 FEW020CB BKN080 30/21 Q1012 TEMPO 3000 TSRA

More Conditions Fewer Conditions

Pressure 29.89 in
Visibility 3.7 miles
Clouds Scattered Clouds 1500 ft
Few 2000 ft
Mostly Cloudy 8000 ft
Heat Index 90 °F
Dew Point 70 °F
Humidity 58%
Rainfall 0.00 in
Snow Depth Not available.
UV 5 out of 12
Pollen Not available.
Air Quality Not available.
Flu Activity Not available.
METAR VOCB 230900Z 09014KT 6000 SCT015 FEW020CB BKN080 30/21 Q1012 TEMPO 3000 TSRA

More Conditions Fewer Conditions

10-Day Weather Forecast

Almanac

Astronomy

Oct. 23, 2014 Rise Set
Actual Time 6:11 AM IST 6:00 PM IST
Civil Twilight 5:50 AM IST 6:21 PM IST
Nautical Twilight 5:25 AM IST 6:46 PM IST
Astronomical Twilight 5:00 AM IST 7:11 PM IST
Moon 5:32 AM IST 5:41 PM IST
Length of Visible Light 12h 31m
Length of Day
11h 48m
Tomorrow will be 0m 32s shorter.
Waning Crescent, 0% of the Moon is Illuminated
Today
Waning Crescent
Oct 23
New
Oct 30
First Quarter
Nov 6
Full
Nov 14
Last Quarter

Yesterday's Extremes

Country Highs Country Lows

Community

WunderPhotos

Upload Photos

1,764,199 photos uploaded!

Nearby

Snow Depth

Not available.

Earthquake Activity

City Distance Mag. Time & Date
No recent earthquake activity has been reported nearby.
Minimum magnitude displayed is 2.5.

Coastal Water Temperatures

Place Temperature
No Stations Reporting

Nearby Weather Stations